sensor_id;sensor_type;location;lat;lon;timestamp;temperature;humidity
11122;DHT22;5615;49.304;10.576;2023-01-13T00:01:43;9.00;99.90
11122;DHT22;5615;49.304;10.576;2023-01-13T00:04:10;9.00;99.90
11122;DHT22;5615;49.304;10.576;2023-01-13T00:06:36;9.00;99.90
11122;DHT22;5615;49.304;10.576;2023-01-13T00:09:04;9.00;99.90
11122;DHT22;5615;49.304;10.576;2023-01-13T00:11:31;9.00;99.90
11122;DHT22;5615;49.304;10.576;2023-01-13T00:13:57;9.00;99.90
11122;DHT22;5615;49.304;10.576;2023-01-13T00:16:24;9.10;99.90
11122;DHT22;5615;49.304;10.576;2023-01-13T00:18:51;9.10;99.90
11122;DHT22;5615;49.304;10.576;2023-01-13T00:21:18;9.00;99.90
11122;DHT22;5615;49.304;10.576;2023-01-13T00:23:45;9.10;99.90
11122;DHT22;5615;49.304;10.576;2023-01-13T00:26:15;9.10;99.90
11122;DHT22;5615;49.304;10.576;2023-01-13T00:28:41;9.10;99.90
11122;DHT22;5615;49.304;10.576;2023-01-13T00:31:10;9.10;99.90
11122;DHT22;5615;49.304;10.576;2023-01-13T00:33:37;9.10;99.90
11122;DHT22;5615;49.304;10.576;2023-01-13T00:36:05;9.10;99.90
11122;DHT22;5615;49.304;10.576;2023-01-13T00:38:34;9.10;99.90
11122;DHT22;5615;49.304;10.576;2023-01-13T00:41:03;9.10;99.90
11122;DHT22;5615;49.304;10.576;2023-01-13T00:43:33;9.10;99.90
11122;DHT22;5615;49.304;10.576;2023-01-13T00:46:00;9.10;99.90
11122;DHT22;5615;49.304;10.576;2023-01-13T00:48:27;9.10;99.90
11122;DHT22;5615;49.304;10.576;2023-01-13T00:50:56;9.20;99.90
11122;DHT22;5615;49.304;10.576;2023-01-13T00:53:23;9.10;99.90
11122;DHT22;5615;49.304;10.576;2023-01-13T00:55:57;9.10;99.90
11122;DHT22;5615;49.304;10.576;2023-01-13T00:58:24;9.20;99.90
11122;DHT22;5615;49.304;10.576;2023-01-13T01:00:52;9.20;99.90
11122;DHT22;5615;49.304;10.576;2023-01-13T01:03:19;9.20;99.90
11122;DHT22;5615;49.304;10.576;2023-01-13T01:05:46;9.20;99.90
11122;DHT22;5615;49.304;10.576;2023-01-13T01:08:12;9.20;99.90
11122;DHT22;5615;49.304;10.576;2023-01-13T01:10:39;9.20;99.90
11122;DHT22;5615;49.304;10.576;2023-01-13T01:13:05;9.20;99.90
11122;DHT22;5615;49.304;10.576;2023-01-13T01:15:32;9.20;99.90
11122;DHT22;5615;49.304;10.576;2023-01-13T01:18:00;9.20;99.90
11122;DHT22;5615;49.304;10.576;2023-01-13T01:20:27;9.20;99.90
11122;DHT22;5615;49.304;10.576;2023-01-13T01:22:53;9.20;99.90
11122;DHT22;5615;49.304;10.576;2023-01-13T01:25:20;9.20;99.90
11122;DHT22;5615;49.304;10.576;2023-01-13T01:27:46;9.20;99.90
11122;DHT22;5615;49.304;10.576;2023-01-13T01:30:14;9.20;99.90
11122;DHT22;5615;49.304;10.576;2023-01-13T01:32:40;9.20;99.90
11122;DHT22;5615;49.304;10.576;2023-01-13T01:35:08;9.20;99.90
11122;DHT22;5615;49.304;10.576;2023-01-13T01:37:35;9.20;99.90
11122;DHT22;5615;49.304;10.576;2023-01-13T01:40:02;9.20;99.90
11122;DHT22;5615;49.304;10.576;2023-01-13T01:42:28;9.20;99.90
11122;DHT22;5615;49.304;10.576;2023-01-13T01:45:16;9.10;99.90
11122;DHT22;5615;49.304;10.576;2023-01-13T01:47:44;9.10;99.90
11122;DHT22;5615;49.304;10.576;2023-01-13T01:50:14;9.10;99.90
11122;DHT22;5615;49.304;10.576;2023-01-13T01:52:44;9.10;99.90
11122;DHT22;5615;49.304;10.576;2023-01-13T01:55:14;9.10;99.90
11122;DHT22;5615;49.304;10.576;2023-01-13T01:57:46;9.10;99.90
11122;DHT22;5615;49.304;10.576;2023-01-13T02:00:14;9.20;99.90
11122;DHT22;5615;49.304;10.576;2023-01-13T02:02:44;9.20;99.90
11122;DHT22;5615;49.304;10.576;2023-01-13T02:05:11;9.10;99.90
11122;DHT22;5615;49.304;10.576;2023-01-13T02:07:41;9.10;99.90
11122;DHT22;5615;49.304;10.576;2023-01-13T02:10:10;9.20;99.90
11122;DHT22;5615;49.304;10.576;2023-01-13T02:12:38;9.10;99.90
11122;DHT22;5615;49.304;10.576;2023-01-13T02:15:07;9.20;99.90
11122;DHT22;5615;49.304;10.576;2023-01-13T02:17:53;9.20;99.90
11122;DHT22;5615;49.304;10.576;2023-01-13T02:20:45;9.20;99.90
11122;DHT22;5615;49.304;10.576;2023-01-13T02:23:43;9.20;99.90
11122;DHT22;5615;49.304;10.576;2023-01-13T02:26:58;9.20;99.90
11122;DHT22;5615;49.304;10.576;2023-01-13T02:29:45;9.20;99.90
11122;DHT22;5615;49.304;10.576;2023-01-13T02:32:34;9.20;99.90
11122;DHT22;5615;49.304;10.576;2023-01-13T02:35:09;9.20;99.90
11122;DHT22;5615;49.304;10.576;2023-01-13T02:37:41;9.20;99.90
11122;DHT22;5615;49.304;10.576;2023-01-13T02:40:12;9.30;99.90
11122;DHT22;5615;49.304;10.576;2023-01-13T02:42:46;9.20;99.90
11122;DHT22;5615;49.304;10.576;2023-01-13T02:45:35;9.20;99.90
11122;DHT22;5615;49.304;10.576;2023-01-13T02:48:06;9.20;99.90
11122;DHT22;5615;49.304;10.576;2023-01-13T02:50:36;9.20;99.90
11122;DHT22;5615;49.304;10.576;2023-01-13T02:53:08;9.20;99.90
11122;DHT22;5615;49.304;10.576;2023-01-13T02:55:38;9.20;99.90
11122;DHT22;5615;49.304;10.576;2023-01-13T02:58:08;9.20;99.90
11122;DHT22;5615;49.304;10.576;2023-01-13T03:00:38;9.30;99.90
11122;DHT22;5615;49.304;10.576;2023-01-13T03:03:05;9.20;99.90
11122;DHT22;5615;49.304;10.576;2023-01-13T03:05:32;9.20;99.90
11122;DHT22;5615;49.304;10.576;2023-01-13T03:08:09;9.20;99.90
11122;DHT22;5615;49.304;10.576;2023-01-13T03:10:49;9.20;99.90
11122;DHT22;5615;49.304;10.576;2023-01-13T03:13:46;9.20;99.90
11122;DHT22;5615;49.304;10.576;2023-01-13T03:16:27;9.20;99.90
11122;DHT22;5615;49.304;10.576;2023-01-13T03:19:05;9.20;99.90
11122;DHT22;5615;49.304;10.576;2023-01-13T03:21:42;9.20;99.90
11122;DHT22;5615;49.304;10.576;2023-01-13T03:24:16;9.20;99.90
11122;DHT22;5615;49.304;10.576;2023-01-13T03:26:47;9.20;99.90
11122;DHT22;5615;49.304;10.576;2023-01-13T03:29:18;9.20;99.90
11122;DHT22;5615;49.304;10.576;2023-01-13T03:31:52;9.20;99.90
11122;DHT22;5615;49.304;10.576;2023-01-13T03:34:21;9.20;99.90
11122;DHT22;5615;49.304;10.576;2023-01-13T03:36:53;9.20;99.90
11122;DHT22;5615;49.304;10.576;2023-01-13T03:39:26;9.20;99.90
11122;DHT22;5615;49.304;10.576;2023-01-13T03:41:57;9.20;99.90
11122;DHT22;5615;49.304;10.576;2023-01-13T03:44:28;9.20;99.90
11122;DHT22;5615;49.304;10.576;2023-01-13T03:47:02;9.20;99.90
11122;DHT22;5615;49.304;10.576;2023-01-13T03:49:36;9.20;99.90
11122;DHT22;5615;49.304;10.576;2023-01-13T03:52:06;9.20;99.90
11122;DHT22;5615;49.304;10.576;2023-01-13T03:54:40;9.20;99.90
11122;DHT22;5615;49.304;10.576;2023-01-13T03:57:12;9.20;99.90
11122;DHT22;5615;49.304;10.576;2023-01-13T03:59:42;9.20;99.90
11122;DHT22;5615;49.304;10.576;2023-01-13T04:02:17;9.20;99.90
11122;DHT22;5615;49.304;10.576;2023-01-13T04:04:47;9.20;99.90
11122;DHT22;5615;49.304;10.576;2023-01-13T04:07:26;9.20;99.90
11122;DHT22;5615;49.304;10.576;2023-01-13T04:09:56;9.10;99.90
11122;DHT22;5615;49.304;10.576;2023-01-13T04:12:26;9.10;99.90
11122;DHT22;5615;49.304;10.576;2023-01-13T04:15:14;9.10;99.90
11122;DHT22;5615;49.304;10.576;2023-01-13T04:17:42;9.10;99.90
11122;DHT22;5615;49.304;10.576;2023-01-13T04:20:10;9.10;99.90
11122;DHT22;5615;49.304;10.576;2023-01-13T04:22:36;9.10;99.90
11122;DHT22;5615;49.304;10.576;2023-01-13T04:25:03;9.20;99.90
11122;DHT22;5615;49.304;10.576;2023-01-13T04:27:30;9.10;99.90
11122;DHT22;5615;49.304;10.576;2023-01-13T04:29:57;9.10;99.90
11122;DHT22;5615;49.304;10.576;2023-01-13T04:32:23;9.20;99.90
11122;DHT22;5615;49.304;10.576;2023-01-13T04:34:51;9.20;99.90
11122;DHT22;5615;49.304;10.576;2023-01-13T04:37:18;9.20;99.90
11122;DHT22;5615;49.304;10.576;2023-01-13T04:39:45;9.20;99.90
11122;DHT22;5615;49.304;10.576;2023-01-13T04:42:11;9.20;99.90
11122;DHT22;5615;49.304;10.576;2023-01-13T04:44:38;9.20;99.90
11122;DHT22;5615;49.304;10.576;2023-01-13T04:47:05;9.30;99.90
11122;DHT22;5615;49.304;10.576;2023-01-13T04:49:31;9.30;99.90
11122;DHT22;5615;49.304;10.576;2023-01-13T04:51:59;9.30;99.90
11122;DHT22;5615;49.304;10.576;2023-01-13T04:54:28;9.30;99.90
11122;DHT22;5615;49.304;10.576;2023-01-13T04:56:54;9.30;99.90
11122;DHT22;5615;49.304;10.576;2023-01-13T04:59:21;9.30;99.90
11122;DHT22;5615;49.304;10.576;2023-01-13T05:01:48;9.30;99.90
11122;DHT22;5615;49.304;10.576;2023-01-13T05:04:14;9.30;99.90
11122;DHT22;5615;49.304;10.576;2023-01-13T05:06:41;9.30;99.90
11122;DHT22;5615;49.304;10.576;2023-01-13T05:09:09;9.30;99.90
11122;DHT22;5615;49.304;10.576;2023-01-13T05:11:37;9.40;99.90
11122;DHT22;5615;49.304;10.576;2023-01-13T05:14:21;9.40;99.90
11122;DHT22;5615;49.304;10.576;2023-01-13T05:17:06;9.30;99.90
11122;DHT22;5615;49.304;10.576;2023-01-13T05:19:35;9.30;99.90
11122;DHT22;5615;49.304;10.576;2023-01-13T05:22:04;9.40;99.90
11122;DHT22;5615;49.304;10.576;2023-01-13T05:24:49;9.40;99.90
11122;DHT22;5615;49.304;10.576;2023-01-13T05:27:33;9.40;99.90
11122;DHT22;5615;49.304;10.576;2023-01-13T05:29:59;9.40;99.90
11122;DHT22;5615;49.304;10.576;2023-01-13T05:32:26;9.40;99.90
11122;DHT22;5615;49.304;10.576;2023-01-13T05:34:53;9.40;99.90
11122;DHT22;5615;49.304;10.576;2023-01-13T05:37:21;9.40;99.90
11122;DHT22;5615;49.304;10.576;2023-01-13T05:39:49;9.40;99.90
11122;DHT22;5615;49.304;10.576;2023-01-13T05:42:32;9.40;99.90
11122;DHT22;5615;49.304;10.576;2023-01-13T05:45:17;9.40;99.90
11122;DHT22;5615;49.304;10.576;2023-01-13T05:47:43;9.40;99.90
11122;DHT22;5615;49.304;10.576;2023-01-13T05:50:10;9.40;99.90
11122;DHT22;5615;49.304;10.576;2023-01-13T05:52:37;9.40;99.90
11122;DHT22;5615;49.304;10.576;2023-01-13T05:55:05;9.40;99.90
11122;DHT22;5615;49.304;10.576;2023-01-13T05:57:32;9.40;99.90
11122;DHT22;5615;49.304;10.576;2023-01-13T05:59:58;9.40;99.90
11122;DHT22;5615;49.304;10.576;2023-01-13T06:02:25;9.40;99.90
11122;DHT22;5615;49.304;10.576;2023-01-13T06:04:52;9.40;99.90
11122;DHT22;5615;49.304;10.576;2023-01-13T06:07:18;9.40;99.90
11122;DHT22;5615;49.304;10.576;2023-01-13T06:09:45;9.40;99.90
11122;DHT22;5615;49.304;10.576;2023-01-13T06:12:13;9.40;99.90
11122;DHT22;5615;49.304;10.576;2023-01-13T06:14:40;9.40;99.90
11122;DHT22;5615;49.304;10.576;2023-01-13T06:17:07;9.40;99.90
11122;DHT22;5615;49.304;10.576;2023-01-13T06:19:34;9.40;99.90
11122;DHT22;5615;49.304;10.576;2023-01-13T06:22:07;9.40;99.90
11122;DHT22;5615;49.304;10.576;2023-01-13T06:24:35;9.40;99.90
11122;DHT22;5615;49.304;10.576;2023-01-13T06:27:03;9.40;99.90
11122;DHT22;5615;49.304;10.576;2023-01-13T06:29:31;9.40;99.90
11122;DHT22;5615;49.304;10.576;2023-01-13T06:32:00;9.40;99.90
11122;DHT22;5615;49.304;10.576;2023-01-13T06:34:28;9.40;99.90
11122;DHT22;5615;49.304;10.576;2023-01-13T06:36:55;9.40;99.90
11122;DHT22;5615;49.304;10.576;2023-01-13T06:39:23;9.40;99.90
11122;DHT22;5615;49.304;10.576;2023-01-13T06:41:53;9.40;99.90
11122;DHT22;5615;49.304;10.576;2023-01-13T06:44:44;9.40;99.90
11122;DHT22;5615;49.304;10.576;2023-01-13T06:47:11;9.40;99.90
11122;DHT22;5615;49.304;10.576;2023-01-13T06:49:37;9.40;99.90
11122;DHT22;5615;49.304;10.576;2023-01-13T06:52:04;9.50;99.90
11122;DHT22;5615;49.304;10.576;2023-01-13T06:54:31;9.50;99.90
11122;DHT22;5615;49.304;10.576;2023-01-13T06:56:59;9.50;99.90
11122;DHT22;5615;49.304;10.576;2023-01-13T06:59:25;9.50;99.90
11122;DHT22;5615;49.304;10.576;2023-01-13T07:01:53;9.50;99.90
11122;DHT22;5615;49.304;10.576;2023-01-13T07:04:20;9.50;99.90
11122;DHT22;5615;49.304;10.576;2023-01-13T07:06:46;9.50;99.90
11122;DHT22;5615;49.304;10.576;2023-01-13T07:09:13;9.50;99.90
11122;DHT22;5615;49.304;10.576;2023-01-13T07:11:40;9.40;99.90
11122;DHT22;5615;49.304;10.576;2023-01-13T07:14:06;9.50;99.90
11122;DHT22;5615;49.304;10.576;2023-01-13T07:16:52;9.50;99.90
11122;DHT22;5615;49.304;10.576;2023-01-13T07:19:19;9.50;99.90
11122;DHT22;5615;49.304;10.576;2023-01-13T07:21:48;9.50;99.90
11122;DHT22;5615;49.304;10.576;2023-01-13T07:24:15;9.50;99.90
11122;DHT22;5615;49.304;10.576;2023-01-13T07:26:41;9.50;99.90
11122;DHT22;5615;49.304;10.576;2023-01-13T07:29:08;9.50;99.90
11122;DHT22;5615;49.304;10.576;2023-01-13T07:31:34;9.60;99.90
11122;DHT22;5615;49.304;10.576;2023-01-13T07:34:03;9.50;99.90
11122;DHT22;5615;49.304;10.576;2023-01-13T07:36:29;9.50;99.90
11122;DHT22;5615;49.304;10.576;2023-01-13T07:38:56;9.50;99.90
11122;DHT22;5615;49.304;10.576;2023-01-13T07:41:23;9.40;99.90
11122;DHT22;5615;49.304;10.576;2023-01-13T07:44:07;9.30;99.90
11122;DHT22;5615;49.304;10.576;2023-01-13T07:46:35;9.20;99.90
11122;DHT22;5615;49.304;10.576;2023-01-13T07:49:03;9.10;99.90
11122;DHT22;5615;49.304;10.576;2023-01-13T07:51:30;9.10;99.90
11122;DHT22;5615;49.304;10.576;2023-01-13T07:53:57;9.10;99.90
11122;DHT22;5615;49.304;10.576;2023-01-13T07:56:23;9.00;99.90
11122;DHT22;5615;49.304;10.576;2023-01-13T07:58:50;9.00;99.90
11122;DHT22;5615;49.304;10.576;2023-01-13T08:01:17;8.90;99.90
11122;DHT22;5615;49.304;10.576;2023-01-13T08:03:44;8.90;99.90
11122;DHT22;5615;49.304;10.576;2023-01-13T08:06:12;8.80;99.90
11122;DHT22;5615;49.304;10.576;2023-01-13T08:08:39;8.80;99.90
11122;DHT22;5615;49.304;10.576;2023-01-13T08:11:06;8.80;99.90
11122;DHT22;5615;49.304;10.576;2023-01-13T08:13:34;8.80;99.90
11122;DHT22;5615;49.304;10.576;2023-01-13T08:16:02;8.80;99.90
11122;DHT22;5615;49.304;10.576;2023-01-13T08:18:30;8.80;99.90
11122;DHT22;5615;49.304;10.576;2023-01-13T08:21:01;8.80;99.90
11122;DHT22;5615;49.304;10.576;2023-01-13T08:23:29;8.90;99.90
11122;DHT22;5615;49.304;10.576;2023-01-13T08:25:59;8.90;99.90
11122;DHT22;5615;49.304;10.576;2023-01-13T08:28:26;8.80;99.90
11122;DHT22;5615;49.304;10.576;2023-01-13T08:30:53;8.90;99.90
11122;DHT22;5615;49.304;10.576;2023-01-13T08:33:20;8.90;99.90
11122;DHT22;5615;49.304;10.576;2023-01-13T08:35:47;8.80;99.90
11122;DHT22;5615;49.304;10.576;2023-01-13T08:38:17;8.80;99.90
11122;DHT22;5615;49.304;10.576;2023-01-13T08:40:44;8.80;99.90
11122;DHT22;5615;49.304;10.576;2023-01-13T08:43:11;8.80;99.90
11122;DHT22;5615;49.304;10.576;2023-01-13T08:45:38;8.80;99.90
11122;DHT22;5615;49.304;10.576;2023-01-13T08:48:05;8.90;99.90
11122;DHT22;5615;49.304;10.576;2023-01-13T08:50:31;8.90;99.90
11122;DHT22;5615;49.304;10.576;2023-01-13T08:52:58;8.90;99.90
11122;DHT22;5615;49.304;10.576;2023-01-13T08:55:25;8.90;99.90
11122;DHT22;5615;49.304;10.576;2023-01-13T08:57:53;8.80;99.90
11122;DHT22;5615;49.304;10.576;2023-01-13T09:00:20;8.90;99.90
11122;DHT22;5615;49.304;10.576;2023-01-13T09:02:46;8.90;99.90
11122;DHT22;5615;49.304;10.576;2023-01-13T09:05:13;9.10;99.90
11122;DHT22;5615;49.304;10.576;2023-01-13T09:07:39;9.10;99.90
11122;DHT22;5615;49.304;10.576;2023-01-13T09:10:08;9.20;99.90
11122;DHT22;5615;49.304;10.576;2023-01-13T09:12:34;9.30;99.90
11122;DHT22;5615;49.304;10.576;2023-01-13T09:15:19;9.20;99.90
11122;DHT22;5615;49.304;10.576;2023-01-13T09:17:46;9.10;99.90
11122;DHT22;5615;49.304;10.576;2023-01-13T09:20:13;9.00;99.90
11122;DHT22;5615;49.304;10.576;2023-01-13T09:22:39;8.90;99.90
11122;DHT22;5615;49.304;10.576;2023-01-13T09:25:07;8.70;99.90
11122;DHT22;5615;49.304;10.576;2023-01-13T09:27:33;8.10;99.90
11122;DHT22;5615;49.304;10.576;2023-01-13T09:30:00;7.90;99.90
11122;DHT22;5615;49.304;10.576;2023-01-13T09:32:28;7.30;99.90
11122;DHT22;5615;49.304;10.576;2023-01-13T09:34:54;7.00;99.90
11122;DHT22;5615;49.304;10.576;2023-01-13T09:37:28;6.90;99.90
11122;DHT22;5615;49.304;10.576;2023-01-13T09:39:55;6.90;99.90
11122;DHT22;5615;49.304;10.576;2023-01-13T09:42:27;6.80;99.90
11122;DHT22;5615;49.304;10.576;2023-01-13T09:45:15;6.70;99.90
11122;DHT22;5615;49.304;10.576;2023-01-13T09:47:49;6.80;99.90
11122;DHT22;5615;49.304;10.576;2023-01-13T09:50:30;6.70;99.90
11122;DHT22;5615;49.304;10.576;2023-01-13T09:52:59;6.60;99.90
11122;DHT22;5615;49.304;10.576;2023-01-13T09:55:29;6.60;99.90
11122;DHT22;5615;49.304;10.576;2023-01-13T09:57:59;6.60;99.90
11122;DHT22;5615;49.304;10.576;2023-01-13T10:00:31;6.60;99.90
11122;DHT22;5615;49.304;10.576;2023-01-13T10:03:12;6.60;99.90
11122;DHT22;5615;49.304;10.576;2023-01-13T10:05:43;6.50;99.90
11122;DHT22;5615;49.304;10.576;2023-01-13T10:08:11;6.60;99.90
11122;DHT22;5615;49.304;10.576;2023-01-13T10:10:42;6.50;99.90
11122;DHT22;5615;49.304;10.576;2023-01-13T10:13:15;6.40;99.90
11122;DHT22;5615;49.304;10.576;2023-01-13T10:15:53;6.40;99.90
11122;DHT22;5615;49.304;10.576;2023-01-13T10:18:24;6.40;99.90
11122;DHT22;5615;49.304;10.576;2023-01-13T10:20:59;6.30;99.90
11122;DHT22;5615;49.304;10.576;2023-01-13T10:23:41;6.30;99.90
11122;DHT22;5615;49.304;10.576;2023-01-13T10:26:30;6.30;99.90
11122;DHT22;5615;49.304;10.576;2023-01-13T10:28:59;6.30;99.90
11122;DHT22;5615;49.304;10.576;2023-01-13T10:31:26;6.40;99.90
11122;DHT22;5615;49.304;10.576;2023-01-13T10:34:01;6.40;99.90
11122;DHT22;5615;49.304;10.576;2023-01-13T10:36:28;6.50;99.90
11122;DHT22;5615;49.304;10.576;2023-01-13T10:39:06;6.50;99.90
11122;DHT22;5615;49.304;10.576;2023-01-13T10:41:33;6.50;99.90
11122;DHT22;5615;49.304;10.576;2023-01-13T10:44:02;6.60;99.90
11122;DHT22;5615;49.304;10.576;2023-01-13T10:46:31;6.60;99.90
11122;DHT22;5615;49.304;10.576;2023-01-13T10:49:01;6.60;99.90
11122;DHT22;5615;49.304;10.576;2023-01-13T10:51:29;6.80;99.90
11122;DHT22;5615;49.304;10.576;2023-01-13T10:53:59;6.90;99.90
11122;DHT22;5615;49.304;10.576;2023-01-13T10:56:29;6.90;99.90
11122;DHT22;5615;49.304;10.576;2023-01-13T10:59:15;7.00;99.90
11122;DHT22;5615;49.304;10.576;2023-01-13T11:01:54;7.10;99.90
11122;DHT22;5615;49.304;10.576;2023-01-13T11:04:31;7.20;99.90
11122;DHT22;5615;49.304;10.576;2023-01-13T11:06:58;7.20;99.90
11122;DHT22;5615;49.304;10.576;2023-01-13T11:09:26;7.40;99.90
11122;DHT22;5615;49.304;10.576;2023-01-13T11:11:55;7.80;99.90
11122;DHT22;5615;49.304;10.576;2023-01-13T11:14:26;8.80;99.90
11122;DHT22;5615;49.304;10.576;2023-01-13T11:17:27;9.50;99.90
11122;DHT22;5615;49.304;10.576;2023-01-13T11:20:04;9.50;99.90
11122;DHT22;5615;49.304;10.576;2023-01-13T11:22:34;9.10;99.90
11122;DHT22;5615;49.304;10.576;2023-01-13T11:25:04;8.40;99.90
11122;DHT22;5615;49.304;10.576;2023-01-13T11:27:40;8.10;99.90
11122;DHT22;5615;49.304;10.576;2023-01-13T11:30:22;7.90;99.90
11122;DHT22;5615;49.304;10.576;2023-01-13T11:33:06;7.90;99.90
11122;DHT22;5615;49.304;10.576;2023-01-13T11:35:41;8.00;99.90
11122;DHT22;5615;49.304;10.576;2023-01-13T11:38:19;7.90;99.90
11122;DHT22;5615;49.304;10.576;2023-01-13T11:40:49;7.90;99.90
11122;DHT22;5615;49.304;10.576;2023-01-13T11:43:22;8.00;99.90
11122;DHT22;5615;49.304;10.576;2023-01-13T11:45:56;8.00;99.90
11122;DHT22;5615;49.304;10.576;2023-01-13T11:48:25;7.90;99.90
11122;DHT22;5615;49.304;10.576;2023-01-13T11:50:59;7.80;99.90
11122;DHT22;5615;49.304;10.576;2023-01-13T11:53:37;7.80;99.90
11122;DHT22;5615;49.304;10.576;2023-01-13T11:56:33;7.80;99.90
11122;DHT22;5615;49.304;10.576;2023-01-13T11:59:23;7.80;99.90
11122;DHT22;5615;49.304;10.576;2023-01-13T12:02:02;7.80;99.90
11122;DHT22;5615;49.304;10.576;2023-01-13T12:04:40;7.70;99.90
11122;DHT22;5615;49.304;10.576;2023-01-13T12:07:16;7.80;99.90
11122;DHT22;5615;49.304;10.576;2023-01-13T12:09:54;7.70;99.90
11122;DHT22;5615;49.304;10.576;2023-01-13T12:12:33;7.70;99.90
11122;DHT22;5615;49.304;10.576;2023-01-13T12:15:23;7.70;99.90
11122;DHT22;5615;49.304;10.576;2023-01-13T12:18:05;7.70;99.90
11122;DHT22;5615;49.304;10.576;2023-01-13T12:20:42;7.50;99.90
11122;DHT22;5615;49.304;10.576;2023-01-13T12:23:22;7.30;99.90
11122;DHT22;5615;49.304;10.576;2023-01-13T12:25:54;7.50;99.90
11122;DHT22;5615;49.304;10.576;2023-01-13T12:28:27;7.50;99.90
11122;DHT22;5615;49.304;10.576;2023-01-13T12:30:59;7.70;99.90
11122;DHT22;5615;49.304;10.576;2023-01-13T12:33:39;7.80;99.90
11122;DHT22;5615;49.304;10.576;2023-01-13T12:36:14;7.70;99.90
11122;DHT22;5615;49.304;10.576;2023-01-13T12:38:47;7.70;99.90
11122;DHT22;5615;49.304;10.576;2023-01-13T12:41:27;7.70;99.90
11122;DHT22;5615;49.304;10.576;2023-01-13T12:43:57;7.70;99.90
11122;DHT22;5615;49.304;10.576;2023-01-13T12:46:48;7.60;99.90
11122;DHT22;5615;49.304;10.576;2023-01-13T12:49:28;7.70;99.90
11122;DHT22;5615;49.304;10.576;2023-01-13T12:52:14;7.80;99.90
11122;DHT22;5615;49.304;10.576;2023-01-13T12:58:14;7.70;99.90
11122;DHT22;5615;49.304;10.576;2023-01-13T13:00:57;7.80;99.90
11122;DHT22;5615;49.304;10.576;2023-01-13T13:03:33;7.80;99.90
11122;DHT22;5615;49.304;10.576;2023-01-13T13:06:05;7.90;99.90
11122;DHT22;5615;49.304;10.576;2023-01-13T13:08:49;7.80;99.90
11122;DHT22;5615;49.304;10.576;2023-01-13T13:11:20;7.80;99.90
11122;DHT22;5615;49.304;10.576;2023-01-13T13:14:11;8.10;99.90
11122;DHT22;5615;49.304;10.576;2023-01-13T13:16:56;8.50;99.90
11122;DHT22;5615;49.304;10.576;2023-01-13T13:19:45;8.10;99.90
11122;DHT22;5615;49.304;10.576;2023-01-13T13:22:40;8.00;99.90
11122;DHT22;5615;49.304;10.576;2023-01-13T13:25:23;8.00;99.90
11122;DHT22;5615;49.304;10.576;2023-01-13T13:28:11;7.80;99.90
11122;DHT22;5615;49.304;10.576;2023-01-13T13:30:49;7.70;99.90
11122;DHT22;5615;49.304;10.576;2023-01-13T13:33:45;7.60;99.90
11122;DHT22;5615;49.304;10.576;2023-01-13T13:36:24;7.30;99.90
11122;DHT22;5615;49.304;10.576;2023-01-13T13:39:04;8.00;99.90
11122;DHT22;5615;49.304;10.576;2023-01-13T13:41:55;8.30;99.90
11122;DHT22;5615;49.304;10.576;2023-01-13T13:44:45;7.70;99.90
11122;DHT22;5615;49.304;10.576;2023-01-13T13:47:40;7.20;99.90
11122;DHT22;5615;49.304;10.576;2023-01-13T13:50:10;7.00;99.90
11122;DHT22;5615;49.304;10.576;2023-01-13T13:52:40;7.00;99.90
11122;DHT22;5615;49.304;10.576;2023-01-13T13:55:14;6.90;99.90
11122;DHT22;5615;49.304;10.576;2023-01-13T13:57:45;6.90;99.90
11122;DHT22;5615;49.304;10.576;2023-01-13T14:00:20;6.90;99.90
11122;DHT22;5615;49.304;10.576;2023-01-13T14:02:51;7.00;99.90
11122;DHT22;5615;49.304;10.576;2023-01-13T14:05:20;7.00;99.90
11122;DHT22;5615;49.304;10.576;2023-01-13T14:07:49;7.10;99.90
11122;DHT22;5615;49.304;10.576;2023-01-13T14:10:19;7.20;99.90
11122;DHT22;5615;49.304;10.576;2023-01-13T14:12:45;7.40;99.90
11122;DHT22;5615;49.304;10.576;2023-01-13T14:15:27;7.70;99.90
11122;DHT22;5615;49.304;10.576;2023-01-13T14:17:57;10.30;99.90
11122;DHT22;5615;49.304;10.576;2023-01-13T14:20:24;10.90;99.90
11122;DHT22;5615;49.304;10.576;2023-01-13T14:22:52;10.90;99.90
11122;DHT22;5615;49.304;10.576;2023-01-13T14:25:33;9.60;99.90
11122;DHT22;5615;49.304;10.576;2023-01-13T14:28:13;8.90;99.90
11122;DHT22;5615;49.304;10.576;2023-01-13T14:30:42;8.50;99.90
11122;DHT22;5615;49.304;10.576;2023-01-13T14:33:14;9.50;99.90
11122;DHT22;5615;49.304;10.576;2023-01-13T14:36:09;9.30;99.90
11122;DHT22;5615;49.304;10.576;2023-01-13T14:38:38;8.40;99.90
11122;DHT22;5615;49.304;10.576;2023-01-13T14:41:10;8.20;99.90
11122;DHT22;5615;49.304;10.576;2023-01-13T14:43:41;8.00;99.90
11122;DHT22;5615;49.304;10.576;2023-01-13T14:46:09;8.90;99.90
11122;DHT22;5615;49.304;10.576;2023-01-13T14:48:38;8.70;99.90
11122;DHT22;5615;49.304;10.576;2023-01-13T14:51:09;8.10;99.90
11122;DHT22;5615;49.304;10.576;2023-01-13T14:53:38;8.30;99.90
11122;DHT22;5615;49.304;10.576;2023-01-13T14:56:35;8.60;99.90
11122;DHT22;5615;49.304;10.576;2023-01-13T14:59:34;8.30;99.90
11122;DHT22;5615;49.304;10.576;2023-01-13T15:04:45;7.60;99.90
11122;DHT22;5615;49.304;10.576;2023-01-13T15:07:19;7.40;99.90
11122;DHT22;5615;49.304;10.576;2023-01-13T15:09:52;7.60;99.90
11122;DHT22;5615;49.304;10.576;2023-01-13T15:12:23;7.30;99.90
11122;DHT22;5615;49.304;10.576;2023-01-13T15:14:53;7.60;99.90
11122;DHT22;5615;49.304;10.576;2023-01-13T15:17:21;7.90;99.90
11122;DHT22;5615;49.304;10.576;2023-01-13T15:19:49;7.60;99.90
11122;DHT22;5615;49.304;10.576;2023-01-13T15:22:15;7.70;99.90
11122;DHT22;5615;49.304;10.576;2023-01-13T15:24:42;7.70;99.90
11122;DHT22;5615;49.304;10.576;2023-01-13T15:27:15;7.40;99.90
11122;DHT22;5615;49.304;10.576;2023-01-13T15:29:43;7.00;99.90
11122;DHT22;5615;49.304;10.576;2023-01-13T15:32:17;6.90;99.90
11122;DHT22;5615;49.304;10.576;2023-01-13T15:34:44;6.80;99.90
11122;DHT22;5615;49.304;10.576;2023-01-13T15:37:12;6.70;99.90
11122;DHT22;5615;49.304;10.576;2023-01-13T15:39:39;6.60;99.90
11122;DHT22;5615;49.304;10.576;2023-01-13T15:42:09;6.50;99.90
11122;DHT22;5615;49.304;10.576;2023-01-13T15:44:54;6.50;99.90
11122;DHT22;5615;49.304;10.576;2023-01-13T15:47:38;6.40;99.90
11122;DHT22;5615;49.304;10.576;2023-01-13T15:50:08;6.40;99.90
11122;DHT22;5615;49.304;10.576;2023-01-13T15:52:36;6.30;99.90
11122;DHT22;5615;49.304;10.576;2023-01-13T15:55:03;6.30;99.90
11122;DHT22;5615;49.304;10.576;2023-01-13T15:57:32;6.20;99.90
11122;DHT22;5615;49.304;10.576;2023-01-13T16:00:00;6.20;99.90
11122;DHT22;5615;49.304;10.576;2023-01-13T16:02:28;6.20;99.90
11122;DHT22;5615;49.304;10.576;2023-01-13T16:04:55;6.10;99.90
11122;DHT22;5615;49.304;10.576;2023-01-13T16:07:23;6.10;99.90
11122;DHT22;5615;49.304;10.576;2023-01-13T16:09:51;6.10;99.90
11122;DHT22;5615;49.304;10.576;2023-01-13T16:12:18;6.20;99.90
11122;DHT22;5615;49.304;10.576;2023-01-13T16:14:45;6.30;99.90
11122;DHT22;5615;49.304;10.576;2023-01-13T16:17:14;6.50;99.90
11122;DHT22;5615;49.304;10.576;2023-01-13T16:19:41;6.50;99.90
11122;DHT22;5615;49.304;10.576;2023-01-13T16:22:09;6.40;99.90